Butterfield, Minnesota
Current Conditions -  °F | °C
As of 1:15 AM on Sunday 23 Nov 2014 (Local Time) from KJYG Reporting Station
Clear Clear  
Wind Chill: 50°   Ceiling: Unl
Heat Index: 50°   Visibility: 7mi
Dew Point: 46°   Wind: 15mph
Humidity: 87%   Direction: 180°S
Pressure: 29.47"   Gusts: NA
Location:  43.96°N, 94.79°W
Report Text: KJYG 230715Z AUTO 18013KT 7SM CLR 10/08 A2947 RMK AO2
Loading
Personal Weather Stations






























Interactive Weather Map New forecast layout! Learn more

10-Day Weather Forecast

Advertisements
Track Severe Weather on mobile